Time;durP1;ratioP1;P1;durP2;ratioP2;P2;SDS_P1;SDS_P2;PMS_P1;PMS_P2;Temp;Humidity;BMP_temperature;BMP_pressure;BME280_temperature;BME280_humidity;BME280_pressure;Samples;Min_cycle;Max_cycle;Signal;HPM_P1;HPM_P2
2024/03/18 00:00:43;;;;;;;4.45;2.10;;;;;;;;;;4869581;29;19935;-72
2024/03/18 00:03:11;;;;;;;3.42;2.38;;;;;;;;;;4869873;29;20464;-73
2024/03/18 00:05:39;;;;;;;4.05;2.13;;;;;;;;;;4868633;29;20056;-73
2024/03/18 00:08:09;;;;;;;3.30;2.20;;;;;;;;;;4869046;29;20052;-73
2024/03/18 00:10:37;;;;;;;3.72;2.20;;;;;;;;;;4868999;29;20065;-73
2024/03/18 00:13:05;;;;;;;3.10;1.85;;;;;;;;;;4870964;29;20055;-75
2024/03/18 00:15:34;;;;;;;3.70;2.15;;;;;;;;;;4869208;29;20060;-73
2024/03/18 00:18:03;;;;;;;4.97;1.95;;;;;;;;;;4871307;29;20488;-73
2024/03/18 00:20:31;;;;;;;5.75;2.30;;;;;;;;;;4868767;29;20049;-73
2024/03/18 00:22:59;;;;;;;5.05;2.40;;;;;;;;;;4868376;29;20045;-73
2024/03/18 00:25:28;;;;;;;4.55;2.20;;;;;;;;;;4868060;29;20422;-72
2024/03/18 00:27:56;;;;;;;;;;;;;;;;;;4867104;29;20049;-73
2024/03/18 00:30:24;;;;;;;;;;;;;;;;;;4867797;29;20303;-73
2024/03/18 00:32:55;;;;;;;2.10;1.75;;;;;;;;;;4868395;29;19928;-77
2024/03/18 00:35:23;;;;;;;2.72;2.00;;;;;;;;;;4868237;29;20048;-74
2024/03/18 00:37:51;;;;;;;;;;;;;;;;;;4868669;29;20045;-73
2024/03/18 00:40:20;;;;;;;4.88;2.30;;;;;;;;;;4867742;29;19927;-73
2024/03/18 00:42:49;;;;;;;2.92;1.90;;;;;;;;;;4868195;29;20127;-73
2024/03/18 00:45:17;;;;;;;2.08;1.88;;;;;;;;;;4852693;29;20057;-74
2024/03/18 00:47:46;;;;;;;3.83;2.22;;;;;;;;;;4867964;29;20045;-73
2024/03/18 00:50:14;;;;;;;2.22;1.75;;;;;;;;;;4868034;29;20522;-73
2024/03/18 00:52:43;;;;;;;5.43;1.70;;;;;;;;;;4867902;29;20056;-73
2024/03/18 00:55:11;;;;;;;2.42;2.17;;;;;;;;;;4868876;29;20045;-73
2024/03/18 00:57:40;;;;;;;5.15;2.30;;;;;;;;;;4867513;29;20061;-73
2024/03/18 01:00:11;;;;;;;6.35;2.50;;;;;;;;;;4867110;29;20045;-73
2024/03/18 01:02:39;;;;;;;3.90;1.85;;;;;;;;;;4867404;29;20060;-73
2024/03/18 01:05:09;;;;;;;4.70;2.25;;;;;;;;;;4867588;29;20049;-73
2024/03/18 01:07:38;;;;;;;4.93;2.30;;;;;;;;;;4867763;29;20060;-73
2024/03/18 01:10:08;;;;;;;3.60;2.38;;;;;;;;;;4867914;29;20068;-73
2024/03/18 01:12:37;;;;;;;3.58;1.95;;;;;;;;;;4867837;29;20045;-73
2024/03/18 01:15:07;;;;;;;4.07;1.95;;;;;;;;;;4868454;29;20053;-78
2024/03/18 01:17:37;;;;;;;7.07;2.05;;;;;;;;;;4868938;29;20056;-73
2024/03/18 01:20:14;;;;;;;6.00;1.98;;;;;;;;;;4867828;29;20065;-74
2024/03/18 01:22:43;;;;;;;5.13;2.10;;;;;;;;;;4868826;29;20076;-73
2024/03/18 01:25:15;;;;;;;3.47;1.98;;;;;;;;;;4868304;29;20065;-73
2024/03/18 01:27:43;;;;;;;4.43;2.15;;;;;;;;;;4867838;29;20068;-73
2024/03/18 01:30:13;;;;;;;2.72;1.80;;;;;;;;;;4867832;29;20226;-73
2024/03/18 01:32:42;;;;;;;3.63;1.80;;;;;;;;;;4867682;29;20049;-74
2024/03/18 01:35:15;;;;;;;6.18;2.10;;;;;;;;;;4867975;29;20041;-74
2024/03/18 01:37:45;;;;;;;6.95;2.00;;;;;;;;;;4867413;29;20053;-74
2024/03/18 01:40:14;;;;;;;4.45;2.10;;;;;;;;;;4867633;29;20052;-73
2024/03/18 01:42:45;;;;;;;4.35;2.40;;;;;;;;;;4867036;29;20406;-74
2024/03/18 01:45:25;;;;;;;5.78;2.40;;;;;;;;;;4867981;29;20060;-73
2024/03/18 01:47:55;;;;;;;3.58;2.40;;;;;;;;;;4868445;29;20053;-73
2024/03/18 01:50:27;;;;;;;2.60;1.92;;;;;;;;;;4852066;29;20056;-73
2024/03/18 01:52:55;;;;;;;12.98;2.70;;;;;;;;;;4867889;29;20048;-73
2024/03/18 01:55:24;;;;;;;3.50;2.50;;;;;;;;;;4867209;29;20068;-73
2024/03/18 01:57:53;;;;;;;5.97;2.70;;;;;;;;;;4866266;29;20513;-73
2024/03/18 02:00:32;;;;;;;5.45;2.40;;;;;;;;;;4866356;29;20065;-73
2024/03/18 02:03:02;;;;;;;3.33;2.42;;;;;;;;;;4851275;29;20049;-73
2024/03/18 02:05:31;;;;;;;3.03;2.72;;;;;;;;;;4867473;29;20049;-73
2024/03/18 02:08:00;;;;;;;4.82;2.40;;;;;;;;;;4867383;29;20052;-74
2024/03/18 02:10:28;;;;;;;3.72;2.42;;;;;;;;;;4851713;29;20076;-74
2024/03/18 02:13:05;;;;;;;6.40;2.45;;;;;;;;;;4867725;29;20052;-73
2024/03/18 02:15:33;;;;;;;5.45;2.50;;;;;;;;;;4851837;29;20056;-74
2024/03/18 02:18:02;;;;;;;4.97;2.35;;;;;;;;;;4866662;29;20060;-74
2024/03/18 02:20:30;;;;;;;5.15;2.20;;;;;;;;;;4866468;29;20049;-74
2024/03/18 02:22:58;;;;;;;3.03;1.90;;;;;;;;;;4867149;29;20048;-74
2024/03/18 02:25:27;;;;;;;8.88;2.40;;;;;;;;;;4866718;29;20505;-74
2024/03/18 02:27:56;;;;;;;5.53;2.33;;;;;;;;;;4867087;29;20424;-74
2024/03/18 02:30:24;;;;;;;2.47;2.10;;;;;;;;;;4853150;29;20041;-74
2024/03/18 02:32:53;;;;;;;4.45;2.97;;;;;;;;;;4870214;29;20064;-74
2024/03/18 02:35:21;;;;;;;6.47;2.22;;;;;;;;;;4854529;29;20060;-74
2024/03/18 02:37:49;;;;;;;6.43;2.50;;;;;;;;;;4870046;29;20068;-74
2024/03/18 02:40:19;;;;;;;2.33;1.88;;;;;;;;;;4869691;29;20505;-74
2024/03/18 02:42:48;;;;;;;2.30;2.10;;;;;;;;;;4870464;29;20045;-74
2024/03/18 02:45:16;;;;;;;2.20;1.88;;;;;;;;;;4870231;29;20513;-74
2024/03/18 02:47:44;;;;;;;6.82;2.40;;;;;;;;;;4870509;29;20065;-74
2024/03/18 02:50:18;;;;;;;4.22;1.98;;;;;;;;;;4870128;29;20850;-74
2024/03/18 02:52:47;;;;;;;3.95;2.05;;;;;;;;;;4870268;29;20037;-73
2024/03/18 02:55:16;;;;;;;7.47;2.30;;;;;;;;;;4869976;29;20045;-73
2024/03/18 02:57:44;;;;;;;4.88;2.22;;;;;;;;;;4870220;29;20045;-73
2024/03/18 03:00:13;;;;;;;2.90;2.05;;;;;;;;;;4854238;29;20752;-73
2024/03/18 03:02:41;;;;;;;5.75;2.22;;;;;;;;;;4869948;29;20073;-73
2024/03/18 03:05:10;;;;;;;4.43;2.15;;;;;;;;;;4870178;29;20055;-73
2024/03/18 03:07:38;;;;;;;3.97;2.40;;;;;;;;;;4869649;29;20041;-73
2024/03/18 03:10:07;;;;;;;4.68;2.40;;;;;;;;;;4869199;29;20049;-74
2024/03/18 03:12:36;;;;;;;6.47;2.60;;;;;;;;;;4869429;29;20505;-74
2024/03/18 03:15:04;;;;;;;6.93;2.40;;;;;;;;;;4869241;29;20543;-74
2024/03/18 03:17:33;;;;;;;5.07;2.10;;;;;;;;;;4869913;29;20052;-73
2024/03/18 03:20:08;;;;;;;7.97;2.22;;;;;;;;;;4869649;29;20044;-74
2024/03/18 03:22:38;;;;;;;4.97;2.30;;;;;;;;;;4869443;29;20056;-73
2024/03/18 03:25:05;;;;;;;;;;;;;;;;;;4869410;29;20060;-74
2024/03/18 03:27:34;;;;;;;8.93;2.13;;;;;;;;;;4869330;29;19928;-74
2024/03/18 03:30:03;;;;;;;4.07;2.30;;;;;;;;;;4869392;29;20806;-74
2024/03/18 03:32:32;;;;;;;4.82;2.45;;;;;;;;;;4870535;29;20041;-74
2024/03/18 03:35:00;;;;;;;5.05;2.22;;;;;;;;;;4870109;29;20045;-73
2024/03/18 03:37:31;;;;;;;7.43;1.90;;;;;;;;;;4869643;29;20067;-73
2024/03/18 03:39:59;;;;;;;5.43;2.20;;;;;;;;;;4869803;29;20052;-73
2024/03/18 03:42:28;;;;;;;3.30;2.65;;;;;;;;;;4869855;29;20056;-73
2024/03/18 03:44:57;;;;;;;1.92;1.73;;;;;;;;;;4869034;29;20389;-73
2024/03/18 03:47:26;;;;;;;4.78;2.35;;;;;;;;;;4869375;29;20045;-73
2024/03/18 03:49:54;;;;;;;3.45;2.30;;;;;;;;;;4869009;29;20041;-73
2024/03/18 03:52:22;;;;;;;4.28;2.25;;;;;;;;;;4853944;29;20064;-73
2024/03/18 03:54:50;;;;;;;3.78;2.20;;;;;;;;;;4869301;29;20053;-74
2024/03/18 03:57:20;;;;;;;5.38;2.55;;;;;;;;;;4869631;29;20065;-73
2024/03/18 03:59:48;;;;;;;4.93;1.92;;;;;;;;;;4868637;29;20412;-74
2024/03/18 04:02:17;;;;;;;4.53;2.50;;;;;;;;;;4853768;29;20049;-73
2024/03/18 04:04:45;;;;;;;4.25;2.30;;;;;;;;;;4853477;29;20061;-73
2024/03/18 04:07:17;;;;;;;5.28;2.47;;;;;;;;;;4868876;29;20060;-73
2024/03/18 04:09:46;;;;;;;2.90;2.33;;;;;;;;;;4868820;29;20045;-73
2024/03/18 04:12:15;;;;;;;6.18;2.40;;;;;;;;;;4868698;29;20080;-72
2024/03/18 04:14:45;;;;;;;5.80;2.72;;;;;;;;;;4868548;29;20468;-74
2024/03/18 04:17:14;;;;;;;;;;;;;;;;;;4868852;29;20052;-73
2024/03/18 04:19:42;;;;;;;3.33;2.10;;;;;;;;;;4869046;29;19931;-72
2024/03/18 04:22:11;;;;;;;3.25;2.00;;;;;;;;;;4868420;29;20515;-73
2024/03/18 04:24:40;;;;;;;7.75;2.35;;;;;;;;;;4869493;29;20052;-73
2024/03/18 04:27:08;;;;;;;4.10;2.10;;;;;;;;;;4868743;29;20049;-74
2024/03/18 04:29:37;;;;;;;4.38;2.50;;;;;;;;;;4868628;29;20053;-74
2024/03/18 04:32:07;;;;;;;3.97;2.72;;;;;;;;;;4868378;29;20049;-73
2024/03/18 04:34:38;;;;;;;5.13;2.50;;;;;;;;;;4868053;29;20523;-73
2024/03/18 04:37:08;;;;;;;2.85;2.35;;;;;;;;;;4868016;29;20053;-73
2024/03/18 04:39:36;;;;;;;6.38;2.15;;;;;;;;;;4868048;29;20049;-73
2024/03/18 04:42:05;;;;;;;6.95;2.60;;;;;;;;;;4868215;29;20053;-73
2024/03/18 04:44:35;;;;;;;4.75;2.70;;;;;;;;;;4868003;29;20045;-74
2024/03/18 04:47:03;;;;;;;5.70;2.25;;;;;;;;;;4868105;29;20049;-73
2024/03/18 04:49:31;;;;;;;5.50;2.28;;;;;;;;;;4868382;29;20048;-74
2024/03/18 04:51:59;;;;;;;3.55;2.45;;;;;;;;;;4868380;29;20053;-74
2024/03/18 04:54:29;;;;;;;2.85;2.13;;;;;;;;;;4866983;29;20501;-73
2024/03/18 04:56:58;;;;;;;3.92;2.13;;;;;;;;;;4868004;29;20056;-74
2024/03/18 04:59:26;;;;;;;3.60;2.25;;;;;;;;;;4867414;29;20508;-74
2024/03/18 05:01:54;;;;;;;5.90;2.35;;;;;;;;;;4851807;29;20065;-73
2024/03/18 05:04:23;;;;;;;5.47;2.58;;;;;;;;;;4852644;29;20517;-74
2024/03/18 05:06:51;;;;;;;4.57;2.38;;;;;;;;;;4867452;29;20052;-74
2024/03/18 05:09:20;;;;;;;4.78;2.50;;;;;;;;;;4866770;29;20513;-74
2024/03/18 05:11:48;;;;;;;3.20;2.53;;;;;;;;;;4868358;29;20045;-73
2024/03/18 05:14:18;;;;;;;3.63;2.83;;;;;;;;;;4852497;29;20045;-73
2024/03/18 05:16:46;;;;;;;3.42;2.53;;;;;;;;;;4868129;29;20088;-74
2024/03/18 05:19:15;;;;;;;4.15;2.42;;;;;;;;;;4867569;29;20056;-73
2024/03/18 05:21:43;;;;;;;5.72;2.58;;;;;;;;;;4867110;29;20166;-73
2024/03/18 05:24:12;;;;;;;5.80;2.70;;;;;;;;;;4867069;29;20053;-73
2024/03/18 05:26:42;;;;;;;4.38;2.47;;;;;;;;;;4867165;29;20041;-73
2024/03/18 05:29:10;;;;;;;2.70;2.30;;;;;;;;;;4867256;29;20053;-72
2024/03/18 05:31:39;;;;;;;3.38;2.40;;;;;;;;;;4867603;29;20794;-73
2024/03/18 05:34:08;;;;;;;3.50;2.15;;;;;;;;;;4867381;29;20077;-74
2024/03/18 05:36:37;;;;;;;5.00;2.50;;;;;;;;;;4867638;29;20048;-73
2024/03/18 05:39:05;;;;;;;3.80;2.55;;;;;;;;;;4867464;29;20061;-72
2024/03/18 05:41:33;;;;;;;2.50;2.30;;;;;;;;;;4867303;29;20072;-73
2024/03/18 05:44:03;;;;;;;3.17;2.25;;;;;;;;;;4852089;29;20057;-73
2024/03/18 05:46:31;;;;;;;2.92;2.35;;;;;;;;;;4867331;29;20041;-73
2024/03/18 05:48:59;;;;;;;6.45;2.67;;;;;;;;;;4867355;29;20064;-73
2024/03/18 05:51:27;;;;;;;4.45;2.65;;;;;;;;;;4867767;29;20676;-72
2024/03/18 05:53:56;;;;;;;4.70;2.00;;;;;;;;;;4852307;29;20420;-73
2024/03/18 05:56:25;;;;;;;4.55;2.42;;;;;;;;;;4866955;29;20053;-73
2024/03/18 05:58:53;;;;;;;4.40;2.17;;;;;;;;;;4866953;29;20049;-71
2024/03/18 06:01:22;;;;;;;2.40;2.00;;;;;;;;;;4867292;29;20053;-73
2024/03/18 06:03:50;;;;;;;3.85;2.28;;;;;;;;;;4867531;29;20053;-71
2024/03/18 06:06:19;;;;;;;4.93;2.50;;;;;;;;;;4870127;29;20056;-73
2024/03/18 06:08:47;;;;;;;2.70;2.20;;;;;;;;;;4871041;29;20053;-73
2024/03/18 06:11:16;;;;;;;5.03;2.05;;;;;;;;;;4870895;29;20049;-72
2024/03/18 06:13:45;;;;;;;3.78;2.22;;;;;;;;;;4870441;29;20056;-71
2024/03/18 06:16:14;;;;;;;3.35;2.67;;;;;;;;;;4871088;29;20052;-72
2024/03/18 06:18:42;;;;;;;;;;;;;;;;;;4855776;29;20048;-73
2024/03/18 06:21:19;;;;;;;3.88;2.00;;;;;;;;;;4870220;29;19935;-72
2024/03/18 06:23:59;;;;;;;2.85;2.30;;;;;;;;;;4871239;29;20123;-72
2024/03/18 06:26:27;;;;;;;7.13;2.53;;;;;;;;;;4855139;29;20060;-72
2024/03/18 06:28:56;;;;;;;2.60;2.28;;;;;;;;;;4870077;29;20052;-73
2024/03/18 06:31:26;;;;;;;5.50;2.33;;;;;;;;;;4870419;29;20571;-73
2024/03/18 06:33:55;;;;;;;7.32;2.40;;;;;;;;;;4870624;29;20060;-73
2024/03/18 06:36:23;;;;;;;2.95;2.35;;;;;;;;;;4870437;29;20041;-74
2024/03/18 06:38:52;;;;;;;3.80;2.38;;;;;;;;;;4854499;29;20060;-71
2024/03/18 06:41:20;;;;;;;2.58;2.28;;;;;;;;;;4870526;29;20048;-73
2024/03/18 06:43:48;;;;;;;5.45;3.00;;;;;;;;;;4870799;29;20072;-72
2024/03/18 06:46:17;;;;;;;3.92;2.42;;;;;;;;;;4870189;29;20053;-73
2024/03/18 06:48:45;;;;;;;4.93;2.63;;;;;;;;;;4869725;29;20072;-73
2024/03/18 06:51:16;;;;;;;2.90;2.60;;;;;;;;;;4870060;29;20508;-72
2024/03/18 06:53:44;;;;;;;5.43;2.70;;;;;;;;;;4870192;29;20067;-73
2024/03/18 06:56:13;;;;;;;4.57;2.63;;;;;;;;;;4854634;29;20061;-73
2024/03/18 06:58:41;;;;;;;2.90;2.25;;;;;;;;;;4869776;29;20057;-72
2024/03/18 07:01:10;;;;;;;4.00;2.60;;;;;;;;;;4870028;29;20045;-72
2024/03/18 07:03:40;;;;;;;2.92;2.50;;;;;;;;;;4869766;29;20074;-72
2024/03/18 07:06:08;;;;;;;;;;;;;;;;;;4870418;29;20041;-72
2024/03/18 07:08:38;;;;;;;1.95;1.70;;;;;;;;;;4870481;29;20288;-73
2024/03/18 07:11:07;;;;;;;2.67;2.38;;;;;;;;;;4870188;29;20053;-72
2024/03/18 07:13:37;;;;;;;2.25;2.00;;;;;;;;;;4869895;29;20053;-73
2024/03/18 07:16:06;;;;;;;3.30;2.78;;;;;;;;;;4869224;29;20057;-72
2024/03/18 07:18:34;;;;;;;5.63;2.45;;;;;;;;;;4869271;29;20498;-72
2024/03/18 07:21:05;;;;;;;2.42;1.90;;;;;;;;;;4869573;29;20052;-71
2024/03/18 07:23:33;;;;;;;4.07;2.10;;;;;;;;;;4869379;29;20052;-73
2024/03/18 07:26:05;;;;;;;1.95;1.75;;;;;;;;;;4869678;29;20060;-71
2024/03/18 07:28:34;;;;;;;2.80;2.40;;;;;;;;;;4869989;29;20052;-73
2024/03/18 07:31:03;;;;;;;2.90;2.45;;;;;;;;;;4869877;29;20045;-72
2024/03/18 07:33:32;;;;;;;3.00;2.22;;;;;;;;;;4869231;29;20061;-73
2024/03/18 07:36:00;;;;;;;3.88;2.78;;;;;;;;;;4869259;29;20422;-72
2024/03/18 07:38:31;;;;;;;3.28;2.50;;;;;;;;;;4869456;29;20052;-72
2024/03/18 07:41:00;;;;;;;3.55;2.60;;;;;;;;;;4869428;29;20068;-72
2024/03/18 07:43:29;;;;;;;4.55;2.60;;;;;;;;;;4869799;29;20083;-73
2024/03/18 07:45:57;;;;;;;7.07;2.58;;;;;;;;;;4854234;29;20049;-73
2024/03/18 07:48:26;;;;;;;2.97;2.38;;;;;;;;;;4868789;29;20049;-72
2024/03/18 07:51:01;;;;;;;3.35;2.45;;;;;;;;;;4868579;29;20060;-72
2024/03/18 07:53:31;;;;;;;3.15;2.10;;;;;;;;;;4868417;29;20049;-72
2024/03/18 07:56:00;;;;;;;4.03;2.33;;;;;;;;;;4868647;29;20045;-72
2024/03/18 07:58:29;;;;;;;3.95;2.10;;;;;;;;;;4868726;29;20041;-73
2024/03/18 08:00:57;;;;;;;3.65;2.60;;;;;;;;;;4869049;29;20049;-73
2024/03/18 08:03:26;;;;;;;3.00;2.35;;;;;;;;;;4868606;29;20120;-73
2024/03/18 08:05:54;;;;;;;3.00;2.58;;;;;;;;;;4868436;29;20057;-72
2024/03/18 08:08:22;;;;;;;4.05;2.65;;;;;;;;;;4852880;29;20061;-71
2024/03/18 08:10:51;;;;;;;3.95;2.63;;;;;;;;;;4868954;29;21088;-72
2024/03/18 08:13:20;;;;;;;4.47;2.53;;;;;;;;;;4867776;29;20862;-72
2024/03/18 08:15:48;;;;;;;3.55;2.75;;;;;;;;;;4868978;29;20045;-73
2024/03/18 08:18:17;;;;;;;5.22;2.53;;;;;;;;;;4868973;29;20516;-72
2024/03/18 08:20:45;;;;;;;2.50;2.15;;;;;;;;;;4852061;29;20068;-72
2024/03/18 08:23:14;;;;;;;3.10;2.70;;;;;;;;;;4869098;29;20049;-72
2024/03/18 08:25:42;;;;;;;2.53;2.33;;;;;;;;;;4853097;29;20071;-73
2024/03/18 08:28:11;;;;;;;6.93;2.80;;;;;;;;;;4868350;29;20045;-72
2024/03/18 08:30:39;;;;;;;3.97;2.72;;;;;;;;;;4868389;29;20060;-72
2024/03/18 08:33:09;;;;;;;9.05;3.17;;;;;;;;;;4852837;29;20056;-72
2024/03/18 08:35:37;;;;;;;;;;;;;;;;;;4868632;29;20053;-72
2024/03/18 08:38:05;;;;;;;4.07;2.55;;;;;;;;;;4868519;29;19939;-72
2024/03/18 08:40:34;;;;;;;3.30;2.70;;;;;;;;;;4868988;29;20834;-72
2024/03/18 08:43:03;;;;;;;3.53;2.60;;;;;;;;;;4867782;29;20049;-73
2024/03/18 08:45:31;;;;;;;5.18;2.83;;;;;;;;;;4868643;29;20065;-72
2024/03/18 08:47:59;;;;;;;5.18;2.60;;;;;;;;;;4867912;29;20060;-72
2024/03/18 08:50:27;;;;;;;5.13;3.17;;;;;;;;;;4868600;29;20052;-72
2024/03/18 08:52:57;;;;;;;3.70;2.90;;;;;;;;;;4867672;29;20075;-73
2024/03/18 08:55:27;;;;;;;3.58;2.53;;;;;;;;;;4867815;29;20049;-73
2024/03/18 08:57:56;;;;;;;4.80;2.85;;;;;;;;;;4867786;29;20057;-73
2024/03/18 09:00:25;;;;;;;3.70;2.75;;;;;;;;;;4852777;29;20052;-73
2024/03/18 09:02:54;;;;;;;6.72;3.13;;;;;;;;;;4853463;29;20059;-72
2024/03/18 09:05:22;;;;;;;7.75;3.03;;;;;;;;;;4868662;29;20049;-72
2024/03/18 09:07:51;;;;;;;8.93;2.78;;;;;;;;;;4868192;29;20040;-73
2024/03/18 09:10:19;;;;;;;4.80;2.38;;;;;;;;;;4867896;29;20057;-73
2024/03/18 09:12:48;;;;;;;5.78;1.77;;;;;;;;;;4867453;29;20547;-73
2024/03/18 09:15:16;;;;;;;3.50;2.28;;;;;;;;;;4867454;29;20049;-72
2024/03/18 09:17:45;;;;;;;6.50;2.55;;;;;;;;;;4867727;29;20061;-72
2024/03/18 09:20:16;;;;;;;9.50;2.40;;;;;;;;;;4851886;29;20057;-72
2024/03/18 09:22:48;;;;;;;6.20;2.25;;;;;;;;;;4867857;29;20056;-71
2024/03/18 09:25:19;;;;;;;11.30;3.10;;;;;;;;;;4867221;29;20087;-72
2024/03/18 09:27:49;;;;;;;5.57;2.78;;;;;;;;;;4867094;29;20056;-73
2024/03/18 09:30:21;;;;;;;3.67;2.75;;;;;;;;;;4851645;29;20065;-72
2024/03/18 09:32:49;;;;;;;4.10;3.00;;;;;;;;;;4867515;29;20049;-73
2024/03/18 09:35:17;;;;;;;4.45;3.10;;;;;;;;;;4852719;29;20045;-72
2024/03/18 09:37:46;;;;;;;9.60;3.28;;;;;;;;;;4867460;29;20057;-73
2024/03/18 09:40:15;;;;;;;4.55;2.90;;;;;;;;;;4870537;29;20483;-73
2024/03/18 09:42:44;;;;;;;;;;;;;;;;;;4874338;29;20053;-71
2024/03/18 09:45:16;;;;;;;3.33;2.92;;;;;;;;;;4873481;29;19934;-72
2024/03/18 09:47:45;;;;;;;9.85;3.42;;;;;;;;;;4857426;29;20057;-73
2024/03/18 09:50:18;;;;;;;13.00;5.05;;;;;;;;;;4873085;29;20052;-72
2024/03/18 09:52:48;;;;;;;13.73;3.80;;;;;;;;;;4873543;29;20056;-72
2024/03/18 09:55:23;;;;;;;5.05;3.38;;;;;;;;;;4872999;29;21143;-73
2024/03/18 09:57:52;;;;;;;7.05;2.70;;;;;;;;;;4873358;29;20394;-73
2024/03/18 10:00:21;;;;;;;;;;;;;;;;;;4874616;29;20064;-72
2024/03/18 10:02:51;;;;;;;5.00;2.85;;;;;;;;;;4873709;29;20418;-72
2024/03/18 10:05:23;;;;;;;5.05;2.78;;;;;;;;;;4873337;29;20045;-72
2024/03/18 10:07:55;;;;;;;5.70;2.95;;;;;;;;;;4873515;29;20045;-72
2024/03/18 10:10:25;;;;;;;5.05;2.63;;;;;;;;;;4873777;29;20048;-74
2024/03/18 10:12:55;;;;;;;4.32;2.78;;;;;;;;;;4873351;29;20528;-72
2024/03/18 10:15:24;;;;;;;6.65;3.28;;;;;;;;;;4873079;29;20048;-72
2024/03/18 10:17:55;;;;;;;4.47;3.28;;;;;;;;;;4873252;29;20049;-73
2024/03/18 10:20:24;;;;;;;5.10;3.35;;;;;;;;;;4857563;29;20061;-72
2024/03/18 10:22:53;;;;;;;7.47;3.65;;;;;;;;;;4873447;29;20049;-73
2024/03/18 10:25:24;;;;;;;7.38;3.63;;;;;;;;;;4857931;29;20060;-73
2024/03/18 10:27:54;;;;;;;6.70;3.33;;;;;;;;;;4873979;29;20073;-72
2024/03/18 10:30:23;;;;;;;15.80;5.80;;;;;;;;;;4873362;29;20049;-73
2024/03/18 10:32:57;;;;;;;12.88;6.72;;;;;;;;;;4872721;29;20056;-72
2024/03/18 10:35:26;;;;;;;13.48;5.80;;;;;;;;;;4873440;29;20057;-73
2024/03/18 10:37:57;;;;;;;17.70;6.80;;;;;;;;;;4857404;29;20057;-74
2024/03/18 10:40:35;;;;;;;28.08;6.05;;;;;;;;;;4872664;29;20049;-72
2024/03/18 10:43:06;;;;;;;9.63;4.90;;;;;;;;;;4873615;29;20079;-72
2024/03/18 10:45:53;;;;;;;5.63;4.80;;;;;;;;;;4874511;29;20080;-74
2024/03/18 10:48:23;;;;;;;8.27;4.50;;;;;;;;;;4857139;29;20068;-83
2024/03/18 10:50:52;;;;;;;17.88;5.20;;;;;;;;;;4856291;29;20061;-73
2024/03/18 10:53:22;;;;;;;9.48;5.50;;;;;;;;;;4855408;29;20072;-74
2024/03/18 10:55:52;;;;;;;7.88;5.25;;;;;;;;;;4870442;29;20044;-73
2024/03/18 10:58:33;;;;;;;7.32;5.53;;;;;;;;;;4870781;29;20057;-73
2024/03/18 11:01:02;;;;;;;16.85;6.60;;;;;;;;;;4869128;29;20531;-73
2024/03/18 11:03:30;;;;;;;9.25;5.22;;;;;;;;;;4869454;29;20052;-73
2024/03/18 11:06:00;;;;;;;10.52;5.60;;;;;;;;;;4870046;29;20049;-75
2024/03/18 11:08:29;;;;;;;8.25;4.50;;;;;;;;;;4869959;29;20045;-74
2024/03/18 11:10:59;;;;;;;5.43;4.05;;;;;;;;;;4870196;29;20056;-80
2024/03/18 11:13:36;;;;;;;8.13;3.78;;;;;;;;;;4854667;29;20074;-73
2024/03/18 11:16:09;;;;;;;7.90;3.55;;;;;;;;;;4870264;29;20493;-73
2024/03/18 11:18:45;;;;;;;5.40;4.10;;;;;;;;;;4870015;29;20065;-73
2024/03/18 11:21:24;;;;;;;5.47;3.60;;;;;;;;;;4870032;29;20409;-73
2024/03/18 11:24:02;;;;;;;8.95;3.78;;;;;;;;;;4870831;29;20398;-73
2024/03/18 11:26:41;;;;;;;7.75;3.05;;;;;;;;;;4870724;29;20049;-73
2024/03/18 11:29:11;;;;;;;5.47;3.30;;;;;;;;;;4857172;29;20045;-73
2024/03/18 11:31:39;;;;;;;12.57;4.15;;;;;;;;;;4869874;29;20049;-73
2024/03/18 11:34:12;;;;;;;5.53;2.92;;;;;;;;;;4854514;29;20056;-73
2024/03/18 11:36:40;;;;;;;8.05;2.80;;;;;;;;;;4854850;29;20049;-73
2024/03/18 11:39:12;;;;;;;5.50;2.60;;;;;;;;;;4870509;29;20041;-72
2024/03/18 11:41:41;;;;;;;3.35;2.53;;;;;;;;;;4874366;29;20055;-81
2024/03/18 11:44:14;;;;;;;5.47;3.10;;;;;;;;;;4870722;29;20119;-73
2024/03/18 11:46:43;;;;;;;4.90;2.42;;;;;;;;;;4871742;29;20044;-72
2024/03/18 11:49:17;;;;;;;4.25;2.10;;;;;;;;;;4853901;29;20044;-73
2024/03/18 11:51:47;;;;;;;3.03;2.28;;;;;;;;;;4869351;29;20426;-73
2024/03/18 11:54:16;;;;;;;11.02;8.88;;;;;;;;;;4868855;29;20064;-73
2024/03/18 11:56:49;;;;;;;3.00;1.98;;;;;;;;;;4868787;29;20053;-72
2024/03/18 11:59:18;;;;;;;3.58;2.00;;;;;;;;;;4868486;29;20048;-73
2024/03/18 12:01:47;;;;;;;3.92;2.13;;;;;;;;;;4868926;29;20049;-72
2024/03/18 12:04:20;;;;;;;6.65;2.10;;;;;;;;;;4838113;29;20057;-73
2024/03/18 12:06:50;;;;;;;6.53;4.20;;;;;;;;;;4868830;29;20056;-73
2024/03/18 12:09:18;;;;;;;;;;;;;;;;;;4869063;29;20045;-73
2024/03/18 12:11:47;;;;;;;6.32;1.90;;;;;;;;;;4869334;29;19928;-73
2024/03/18 12:14:15;;;;;;;13.60;2.38;;;;;;;;;;4869186;29;20045;-74
2024/03/18 12:16:44;;;;;;;4.53;1.90;;;;;;;;;;4869044;29;20072;-73
2024/03/18 12:19:13;;;;;;;2.85;1.90;;;;;;;;;;4869647;29;20096;-74
2024/03/18 12:21:41;;;;;;;;;;;;;;;;;;4854503;29;20045;-78
2024/03/18 12:29:47;;;;;;;1.75;1.40;;;;;;;;;;4871889;29;20053;-73
2024/03/18 12:32:17;;;;;;;4.07;1.58;;;;;;;;;;4877781;29;20057;-73
2024/03/18 12:34:45;;;;;;;;;;;;;;;;;;4857826;29;20436;-74
2024/03/18 12:37:16;;;;;;;2.17;1.60;;;;;;;;;;4839896;29;19924;-73
2024/03/18 12:39:46;;;;;;;3.28;1.45;;;;;;;;;;4855396;29;20056;-74
2024/03/18 12:42:15;;;;;;;3.15;1.52;;;;;;;;;;4853809;29;20480;-74
2024/03/18 12:44:44;;;;;;;4.80;1.45;;;;;;;;;;4870024;29;20425;-74
2024/03/18 12:47:12;;;;;;;3.35;1.48;;;;;;;;;;4869821;29;20060;-74
2024/03/18 12:49:41;;;;;;;5.13;1.98;;;;;;;;;;4869969;29;20053;-81
2024/03/18 12:52:11;;;;;;;2.60;1.33;;;;;;;;;;4870005;29;20057;-74
2024/03/18 12:54:40;;;;;;;5.45;1.70;;;;;;;;;;4870715;29;20052;-74
2024/03/18 12:57:09;;;;;;;3.13;1.63;;;;;;;;;;4854879;29;20448;-73
2024/03/18 12:59:37;;;;;;;7.57;1.73;;;;;;;;;;4869806;29;20059;-74
2024/03/18 13:02:13;;;;;;;1.63;1.20;;;;;;;;;;4869394;29;20053;-74
2024/03/18 13:04:42;;;;;;;2.13;1.30;;;;;;;;;;4869606;29;20057;-74
2024/03/18 13:07:12;;;;;;;10.60;1.80;;;;;;;;;;4868898;29;20045;-77
2024/03/18 13:09:41;;;;;;;2.22;1.35;;;;;;;;;;4869335;29;20045;-74
2024/03/18 13:12:12;;;;;;;1.63;1.20;;;;;;;;;;4868755;29;20041;-74
2024/03/18 13:14:41;;;;;;;1.75;1.33;;;;;;;;;;4867363;29;20529;-74
2024/03/18 13:17:09;;;;;;;6.65;1.27;;;;;;;;;;4868182;29;20056;-75
2024/03/18 13:19:38;;;;;;;4.88;1.50;;;;;;;;;;4867141;29;20535;-72
2024/03/18 13:22:10;;;;;;;3.47;1.30;;;;;;;;;;4868318;29;20049;-73
2024/03/18 13:24:39;;;;;;;3.08;1.50;;;;;;;;;;4867841;29;20049;-74
2024/03/18 13:27:08;;;;;;;2.83;1.23;;;;;;;;;;4852245;29;20065;-73
2024/03/18 13:29:39;;;;;;;6.40;1.50;;;;;;;;;;4868244;29;20076;-74
2024/03/18 13:32:10;;;;;;;1.25;1.05;;;;;;;;;;4868259;29;20049;-74
2024/03/18 13:34:39;;;;;;;1.63;1.40;;;;;;;;;;4867286;29;20049;-74
2024/03/18 13:37:09;;;;;;;2.65;1.20;;;;;;;;;;4867548;29;20049;-73
2024/03/18 13:39:40;;;;;;;2.35;1.15;;;;;;;;;;4867262;29;20439;-73
2024/03/18 13:42:18;;;;;;;2.22;1.40;;;;;;;;;;4868108;29;20432;-74
2024/03/18 13:44:50;;;;;;;1.00;1.00;;;;;;;;;;4867767;29;20067;-73
2024/03/18 13:47:19;;;;;;;;;;;;;;;;;;4869262;29;20045;-73
2024/03/18 13:49:47;;;;;;;2.20;1.20;;;;;;;;;;4868222;29;19932;-74
2024/03/18 13:52:15;;;;;;;3.10;1.33;;;;;;;;;;4867819;29;20064;-73
2024/03/18 13:54:44;;;;;;;1.52;1.10;;;;;;;;;;4867910;29;20509;-73
2024/03/18 13:57:14;;;;;;;4.57;1.23;;;;;;;;;;4868463;29;20068;-73
2024/03/18 13:59:43;;;;;;;1.25;1.15;;;;;;;;;;4869960;29;20048;-75
2024/03/18 14:02:16;;;;;;;1.95;1.70;;;;;;;;;;4851808;29;20897;-74
2024/03/18 14:04:44;;;;;;;1.30;1.20;;;;;;;;;;4866899;29;20053;-73
2024/03/18 14:07:14;;;;;;;2.72;1.20;;;;;;;;;;4866751;29;20061;-74
2024/03/18 14:09:43;;;;;;;2.72;1.30;;;;;;;;;;4867073;29;20045;-73
2024/03/18 14:12:21;;;;;;;4.97;1.35;;;;;;;;;;4867384;29;20053;-74
2024/03/18 14:14:50;;;;;;;2.45;1.35;;;;;;;;;;4867017;29;20061;-74
2024/03/18 14:17:19;;;;;;;1.75;1.33;;;;;;;;;;4867006;29;20053;-74
2024/03/18 14:19:48;;;;;;;1.88;1.25;;;;;;;;;;4866794;29;20045;-74
2024/03/18 14:22:16;;;;;;;1.77;1.30;;;;;;;;;;4867592;29;20049;-79
2024/03/18 14:24:47;;;;;;;5.20;1.30;;;;;;;;;;4866745;29;20053;-74
2024/03/18 14:27:16;;;;;;;2.95;1.13;;;;;;;;;;4869524;29;20412;-74
2024/03/18 14:29:45;;;;;;;6.35;1.83;;;;;;;;;;4870580;29;20607;-74
2024/03/18 14:32:15;;;;;;;7.88;5.40;;;;;;;;;;4855793;29;20094;-75
2024/03/18 14:34:43;;;;;;;4.95;1.23;;;;;;;;;;4870697;29;20059;-74
2024/03/18 14:37:13;;;;;;;7.95;1.70;;;;;;;;;;4870645;29;20062;-74
2024/03/18 14:39:41;;;;;;;1.65;1.08;;;;;;;;;;4870940;29;20060;-74
2024/03/18 14:42:12;;;;;;;5.25;1.45;;;;;;;;;;4870891;29;20056;-74
2024/03/18 14:44:40;;;;;;;4.43;1.00;;;;;;;;;;4870755;29;20060;-74
2024/03/18 14:47:08;;;;;;;1.92;1.05;;;;;;;;;;4870600;29;20052;-75
2024/03/18 14:49:37;;;;;;;1.42;1.33;;;;;;;;;;4871530;29;20049;-73
2024/03/18 14:52:10;;;;;;;2.97;1.20;;;;;;;;;;4855123;29;20088;-74
2024/03/18 14:54:39;;;;;;;1.85;1.30;;;;;;;;;;4870102;29;20060;-75
2024/03/18 14:57:09;;;;;;;2.65;1.42;;;;;;;;;;4855128;29;20065;-73
2024/03/18 14:59:37;;;;;;;1.95;1.20;;;;;;;;;;4869954;29;20048;-75
2024/03/18 15:02:06;;;;;;;2.15;1.23;;;;;;;;;;4870863;29;20057;-75
2024/03/18 15:04:36;;;;;;;2.30;1.10;;;;;;;;;;4870045;29;20215;-83